Time;durP1;ratioP1;P1;durP2;ratioP2;P2;SDS_P1;SDS_P2;PMS_P1;PMS_P2;Temp;Humidity;BMP_temperature;BMP_pressure;BME280_temperature;BME280_humidity;BME280_pressure;Samples;Min_cycle;Max_cycle;Signal;HPM_P1;HPM_P2
2021/03/13 00:00:38;;;;;;;9.80;2.50;;;7.90;99.90;;;;;;5052602;28;20167;-75
2021/03/13 00:03:03;;;;;;;17.37;3.23;;;7.90;99.90;;;;;;5052501;28;20237;-75
2021/03/13 00:05:36;;;;;;;12.27;3.63;;;7.90;99.90;;;;;;5034802;28;20538;-75
2021/03/13 00:08:03;;;;;;;10.53;2.90;;;7.80;99.90;;;;;;5034902;28;20171;-76
2021/03/13 00:10:29;;;;;;;13.80;2.90;;;7.80;99.90;;;;;;5052586;28;20167;-75
2021/03/13 00:12:54;;;;;;;10.63;2.80;;;7.80;99.90;;;;;;5034145;28;20545;-75
2021/03/13 00:15:20;;;;;;;11.90;2.80;;;7.80;99.90;;;;;;5052572;28;20286;-76
2021/03/13 00:17:47;;;;;;;8.53;2.43;;;7.70;99.90;;;;;;5034708;28;20202;-76
2021/03/13 00:20:17;;;;;;;9.90;2.67;;;7.70;99.90;;;;;;5034471;28;20576;-76
2021/03/13 00:22:44;;;;;;;23.00;3.00;;;7.70;99.90;;;;;;5055733;28;20171;-76
2021/03/13 00:25:10;;;;;;;17.20;2.97;;;7.60;99.90;;;;;;5055858;28;20531;-76
2021/03/13 00:27:48;;;;;;;21.20;3.07;;;7.60;99.90;;;;;;5038229;28;20186;-77
2021/03/13 00:30:30;;;;;;;7.10;2.20;;;7.60;99.90;;;;;;5055939;28;20167;-76
2021/03/13 00:33:04;;;;;;;16.93;2.83;;;7.60;99.90;;;;;;5055493;28;20714;-77
2021/03/13 00:35:31;;;;;;;11.03;2.73;;;7.60;99.90;;;;;;5038161;28;20215;-76
2021/03/13 00:37:58;;;;;;;16.80;2.77;;;7.60;99.90;;;;;;5038024;28;20168;-76
2021/03/13 00:40:27;;;;;;;21.10;2.93;;;7.60;99.90;;;;;;5055769;28;20544;-75
2021/03/13 00:42:54;;;;;;;18.27;3.27;;;7.60;99.90;;;;;;5037202;28;20202;-76
2021/03/13 00:45:21;;;;;;;12.73;2.47;;;7.70;99.90;;;;;;5037758;28;20182;-76
2021/03/13 00:47:48;;;;;;;9.37;2.70;;;7.70;99.90;;;;;;5055485;28;20163;-75
2021/03/13 00:50:16;;;;;;;15.87;3.20;;;7.70;99.90;;;;;;5055460;28;20183;-75
2021/03/13 00:52:42;;;;;;;8.50;2.37;;;7.80;99.90;;;;;;5037228;28;20167;-75
2021/03/13 00:55:10;;;;;;;15.00;2.90;;;7.80;99.90;;;;;;5021588;28;20210;-74
2021/03/13 00:57:35;;;;;;;14.20;2.27;;;7.80;99.90;;;;;;5037489;28;20167;-75
2021/03/13 01:00:09;;;;;;;12.03;2.00;;;7.90;99.90;;;;;;5055474;28;20172;-75
2021/03/13 01:02:35;;;;;;;9.97;2.10;;;7.80;99.90;;;;;;5036887;28;20644;-75
2021/03/13 01:05:01;;;;;;;13.90;1.83;;;7.90;99.90;;;;;;5021084;28;20182;-75
2021/03/13 01:07:27;;;;;;;12.23;1.87;;;7.90;99.90;;;;;;5021015;28;20289;-75
2021/03/13 01:09:53;;;;;;;12.43;2.30;;;8.00;99.90;;;;;;5055533;28;20643;-75
2021/03/13 01:12:18;;;;;;;5.73;1.77;;;8.00;99.90;;;;;;5054447;28;20183;-75
2021/03/13 01:14:44;;;;;;;9.43;2.05;;;8.00;99.90;;;;;;5047266;28;20210;-75
2021/03/13 01:17:10;;;;;;;8.83;1.90;;;7.90;99.90;;;;;;5055236;28;20171;-75
2021/03/13 01:19:36;;;;;;;6.43;2.40;;;7.90;99.90;;;;;;5037375;28;20258;-75
2021/03/13 01:22:02;;;;;;;10.70;2.07;;;7.80;99.90;;;;;;5054657;28;20218;-76
2021/03/13 01:24:27;;;;;;;14.37;2.60;;;7.80;99.90;;;;;;5053800;28;20222;-75
2021/03/13 01:26:53;;;;;;;7.63;1.77;;;7.80;99.90;;;;;;5037379;28;20171;-76
2021/03/13 01:29:19;;;;;;;11.03;1.90;;;7.80;99.90;;;;;;5036780;28;20214;-75
2021/03/13 01:31:44;;;;;;;11.90;2.10;;;7.80;99.90;;;;;;5036064;28;20632;-74
2021/03/13 01:34:10;;;;;;;10.03;2.50;;;7.80;99.90;;;;;;5053936;28;20171;-74
2021/03/13 01:36:37;;;;;;;7.07;2.00;;;7.90;99.90;;;;;;5036814;28;20214;-77
2021/03/13 01:39:04;;;;;;;5.63;1.80;;;7.90;99.90;;;;;;5054709;28;20218;-75
2021/03/13 01:41:29;;;;;;;9.17;2.33;;;7.90;99.90;;;;;;5036835;28;20171;-75
2021/03/13 01:43:55;;;;;;;10.70;2.40;;;7.90;99.90;;;;;;5036153;28;20704;-74
2021/03/13 01:46:21;;;;;;;13.83;2.73;;;8.00;99.90;;;;;;5020729;28;20229;-75
2021/03/13 01:48:56;;;;;;;7.37;2.50;;;8.00;99.90;;;;;;5036640;28;20672;-75
2021/03/13 01:51:21;;;;;;;8.63;2.77;;;8.00;99.90;;;;;;5054734;28;20175;-75
2021/03/13 01:53:51;;;;;;;9.20;2.90;;;8.10;99.90;;;;;;5036178;28;20655;-74
2021/03/13 01:56:17;;;;;;;12.07;3.88;;;8.10;99.90;;;;;;5054062;28;20278;-75
2021/03/13 01:58:43;;;;;;;13.67;2.90;;;8.10;99.90;;;;;;5036634;28;20172;-75
2021/03/13 02:01:10;;;;;;;12.87;3.27;;;8.10;99.90;;;;;;5035955;28;20197;-75
2021/03/13 02:03:39;;;;;;;8.32;2.45;;;8.10;99.90;;;;;;5053941;28;20176;-75
2021/03/13 02:06:05;;;;;;;13.07;2.70;;;8.10;99.90;;;;;;5036181;28;20602;-75
2021/03/13 02:08:56;;;;;;;12.95;2.97;;;8.10;99.90;;;;;;5054169;28;20198;-75
2021/03/13 02:11:49;;;;;;;8.70;2.10;;;8.10;99.90;;;;;;5054110;28;20171;-74
2021/03/13 02:14:39;;;;;;;11.27;2.92;;;8.20;99.90;;;;;;5022111;28;20168;-76
2021/03/13 02:17:32;;;;;;;11.13;2.70;;;8.20;99.90;;;;;;5035690;28;20613;-75
2021/03/13 02:20:24;;;;;;;15.68;2.80;;;8.20;99.90;;;;;;5036016;28;20172;-75
2021/03/13 02:22:51;;;;;;;17.70;3.72;;;8.30;99.90;;;;;;5035632;28;20263;-75
2021/03/13 02:26:10;;;;;;;12.85;3.03;;;8.30;99.90;;;;;;5053715;28;20667;-75
2021/03/13 02:28:54;;;;;;;14.45;2.22;;;8.30;99.90;;;;;;4937480;29;20171;-75
2021/03/13 02:31:23;;;;;;;9.50;2.28;;;8.30;99.90;;;;;;5027699;28;20591;-75
2021/03/13 02:33:56;;;;;;;9.37;2.60;;;8.30;99.90;;;;;;5035230;28;20225;-75
2021/03/13 02:36:22;;;;;;;15.93;3.23;;;8.30;99.90;;;;;;5053765;28;20203;-75
2021/03/13 02:38:49;;;;;;;11.52;2.53;;;8.30;99.90;;;;;;5035796;28;20171;-75
2021/03/13 02:41:22;;;;;;;19.10;2.47;;;8.30;99.90;;;;;;5053478;28;20611;-75
2021/03/13 02:43:53;;;;;;;11.30;2.53;;;8.30;99.90;;;;;;5052914;28;20201;-75
2021/03/13 02:46:22;;;;;;;18.00;3.17;;;8.30;99.90;;;;;;5053308;28;20542;-75
2021/03/13 02:48:49;;;;;;;23.10;2.75;;;8.20;99.90;;;;;;5035674;28;20225;-75
2021/03/13 02:51:17;;;;;;;16.70;2.78;;;8.20;99.90;;;;;;5053171;28;20639;-75
2021/03/13 02:53:46;;;;;;;15.15;2.97;;;8.30;99.90;;;;;;5035808;28;20639;-76
2021/03/13 02:56:14;;;;;;;19.50;2.83;;;8.20;99.90;;;;;;5035484;28;20235;-75
2021/03/13 02:58:41;;;;;;;16.23;2.63;;;8.20;99.90;;;;;;5053082;28;20190;-75
2021/03/13 03:01:08;;;;;;;20.90;3.43;;;8.30;99.90;;;;;;5035235;28;20665;-76
2021/03/13 03:03:36;;;;;;;9.87;2.23;;;8.20;99.90;;;;;;5052904;28;20176;-75
2021/03/13 03:06:03;;;;;;;16.73;2.35;;;8.20;99.90;;;;;;5053170;28;20538;-74
2021/03/13 03:08:30;;;;;;;10.18;2.10;;;8.20;99.90;;;;;;5053030;28;20511;-75
2021/03/13 03:10:56;;;;;;;25.48;2.90;;;8.20;99.90;;;;;;5034705;28;20172;-75
2021/03/13 03:13:25;;;;;;;14.15;2.90;;;8.20;99.90;;;;;;5018583;28;20172;-75
2021/03/13 03:15:53;;;;;;;17.67;2.25;;;8.20;99.90;;;;;;5052502;28;20204;-75
2021/03/13 03:18:26;;;;;;;13.50;2.80;;;8.20;99.90;;;;;;5035284;28;20553;-75
2021/03/13 03:20:52;;;;;;;13.88;2.22;;;8.20;99.90;;;;;;5052924;28;20177;-75
2021/03/13 03:23:18;;;;;;;9.43;2.72;;;8.20;99.90;;;;;;5035142;28;20553;-76
2021/03/13 03:25:44;;;;;;;14.60;2.58;;;8.20;99.90;;;;;;5052395;28;20621;-75
2021/03/13 03:28:13;;;;;;;6.55;1.67;;;8.30;99.90;;;;;;5034907;28;20203;-75
2021/03/13 03:30:39;;;;;;;10.90;2.13;;;8.30;99.90;;;;;;5035274;28;20278;-75
2021/03/13 03:33:05;;;;;;;10.43;2.15;;;8.30;99.90;;;;;;5052664;28;20578;-74
2021/03/13 03:35:31;;;;;;;9.73;2.13;;;8.30;99.90;;;;;;5052446;28;20207;-76
2021/03/13 03:37:59;;;;;;;18.17;2.47;;;8.40;99.90;;;;;;5052893;28;20163;-75
2021/03/13 03:40:27;;;;;;;15.07;2.20;;;8.40;99.90;;;;;;5052227;28;20544;-75
2021/03/13 03:43:19;;;;;;;9.18;1.52;;;8.40;99.90;;;;;;5035251;28;20163;-75
2021/03/13 03:45:51;;;;;;;11.68;1.58;;;8.40;99.90;;;;;;5052571;28;20179;-75
2021/03/13 03:48:19;;;;;;;10.27;2.13;;;8.40;99.90;;;;;;5035023;28;20164;-75
2021/03/13 03:50:45;;;;;;;7.18;1.98;;;8.40;99.90;;;;;;5052428;28;20179;-75
2021/03/13 03:53:18;;;;;;;13.25;2.33;;;8.30;99.90;;;;;;5052787;28;20233;-75
2021/03/13 03:55:48;;;;;;;6.10;1.95;;;8.40;99.90;;;;;;5035220;28;20581;-75
2021/03/13 03:58:18;;;;;;;9.90;2.53;;;8.30;99.90;;;;;;5038573;28;20262;-75
2021/03/13 04:00:44;;;;;;;9.30;1.37;;;8.40;99.90;;;;;;5056156;28;20255;-75
2021/03/13 04:03:12;;;;;;;8.63;1.50;;;8.40;99.90;;;;;;5038179;28;20172;-75
2021/03/13 04:05:42;;;;;;;7.25;1.92;;;8.40;99.90;;;;;;5056450;28;20172;-75
2021/03/13 04:08:12;;;;;;;7.33;2.00;;;8.40;99.90;;;;;;5038162;28;20214;-76
2021/03/13 04:10:42;;;;;;;15.17;2.00;;;8.50;99.90;;;;;;5056472;28;20190;-75
2021/03/13 04:13:09;;;;;;;9.23;2.03;;;8.40;99.90;;;;;;5055891;28;20167;-75
2021/03/13 04:15:35;;;;;;;11.23;1.80;;;8.50;99.90;;;;;;5056196;28;20199;-75
2021/03/13 04:18:01;;;;;;;11.43;2.07;;;8.50;99.90;;;;;;5055772;28;20198;-75
2021/03/13 04:20:28;;;;;;;9.60;2.67;;;8.60;99.90;;;;;;5055938;28;20198;-75
2021/03/13 04:22:54;;;;;;;12.07;2.27;;;8.60;99.90;;;;;;5037933;28;20631;-75
2021/03/13 04:25:20;;;;;;;13.83;2.20;;;8.60;99.90;;;;;;5056372;28;20182;-75
2021/03/13 04:27:46;;;;;;;14.38;2.40;;;8.60;99.90;;;;;;5055624;28;20658;-75
2021/03/13 04:30:15;;;;;;;7.43;2.30;;;8.60;99.90;;;;;;5054660;28;20175;-75
2021/03/13 04:32:43;;;;;;;13.23;2.30;;;8.60;99.90;;;;;;5055978;28;20666;-75
2021/03/13 04:35:11;;;;;;;18.48;2.60;;;8.60;99.90;;;;;;5037538;28;20237;-76
2021/03/13 04:37:37;;;;;;;10.02;2.00;;;8.60;99.90;;;;;;5038094;28;20174;-75
2021/03/13 04:40:03;;;;;;;12.18;2.67;;;8.60;99.90;;;;;;5005127;28;20180;-75
2021/03/13 04:42:30;;;;;;;14.73;2.33;;;8.60;99.90;;;;;;5025583;28;20199;-75
2021/03/13 04:44:56;;;;;;;13.65;2.38;;;8.60;99.90;;;;;;5055314;28;20180;-76
2021/03/13 04:47:22;;;;;;;17.43;2.60;;;8.60;99.90;;;;;;5037926;28;20199;-75
2021/03/13 04:49:47;;;;;;;13.48;2.50;;;8.70;99.90;;;;;;5037227;28;20294;-75
2021/03/13 04:52:14;;;;;;;7.75;2.28;;;8.70;99.90;;;;;;5056011;28;20171;-75
2021/03/13 04:54:40;;;;;;;8.55;2.00;;;8.70;99.90;;;;;;5055005;28;20233;-75
2021/03/13 04:57:06;;;;;;;8.13;2.10;;;8.70;99.90;;;;;;5037645;28;20176;-74
2021/03/13 04:59:31;;;;;;;15.50;2.28;;;8.70;99.90;;;;;;5037472;28;20254;-75
2021/03/13 05:02:02;;;;;;;12.73;2.33;;;8.80;99.90;;;;;;5054504;28;20593;-76
2021/03/13 05:04:27;;;;;;;8.82;2.47;;;8.80;99.90;;;;;;5037177;28;20179;-75
2021/03/13 05:06:53;;;;;;;9.60;2.20;;;8.80;99.90;;;;;;5054867;28;20175;-75
2021/03/13 05:09:18;;;;;;;11.60;1.92;;;8.80;99.90;;;;;;5036757;28;20176;-75
2021/03/13 05:11:44;;;;;;;9.27;1.75;;;8.80;99.90;;;;;;5036850;28;20183;-76
2021/03/13 05:14:10;;;;;;;14.83;2.37;;;8.80;99.90;;;;;;5036959;28;20262;-75
2021/03/13 05:16:35;;;;;;;9.85;1.92;;;8.70;99.90;;;;;;5054970;28;20211;-75
2021/03/13 05:19:01;;;;;;;9.93;1.50;;;8.70;99.90;;;;;;5054873;28;20754;-75
2021/03/13 05:21:26;;;;;;;15.05;2.60;;;8.60;99.90;;;;;;5036713;28;20203;-75
2021/03/13 05:23:53;;;;;;;17.85;2.33;;;8.60;99.90;;;;;;5054775;28;20172;-75
2021/03/13 05:26:19;;;;;;;14.82;2.25;;;8.50;99.90;;;;;;5054945;28;20178;-75
2021/03/13 05:28:44;;;;;;;13.93;1.77;;;8.50;99.90;;;;;;5054837;28;20171;-75
2021/03/13 05:31:10;;;;;;;14.40;2.40;;;8.40;99.90;;;;;;5054304;28;20639;-75
2021/03/13 05:33:36;;;;;;;9.07;1.77;;;8.40;99.90;;;;;;5036695;28;20171;-75
2021/03/13 05:36:03;;;;;;;15.17;2.33;;;8.20;99.90;;;;;;5054734;28;20233;-75
2021/03/13 05:38:29;;;;;;;8.23;1.50;;;8.10;99.90;;;;;;5054848;28;20171;-75
2021/03/13 05:40:56;;;;;;;4.30;0.83;;;8.00;99.90;;;;;;5054684;28;20171;-75
2021/03/13 05:43:22;;;;;;;3.93;0.90;;;7.80;99.90;;;;;;5036156;28;20175;-75
2021/03/13 05:45:48;;;;;;;4.40;0.77;;;7.70;99.90;;;;;;5054818;28;20175;-75
2021/03/13 05:48:15;;;;;;;1.33;0.53;;;7.70;99.90;;;;;;5036847;28;20241;-75
2021/03/13 05:50:43;;;;;;;2.83;0.83;;;7.60;99.90;;;;;;5036751;28;20164;-75
2021/03/13 05:53:10;;;;;;;4.73;0.67;;;7.50;99.90;;;;;;5054201;28;20182;-75
2021/03/13 05:55:36;;;;;;;3.50;0.67;;;7.50;99.90;;;;;;5054327;28;20583;-75
2021/03/13 05:58:02;;;;;;;0.80;0.60;;;7.40;99.90;;;;;;5054218;28;20183;-75
2021/03/13 06:00:27;;;;;;;5.40;1.03;;;7.40;99.90;;;;;;5036272;28;20182;-75
2021/03/13 06:02:55;;;;;;;0.93;0.50;;;7.40;99.90;;;;;;5035532;28;20198;-75
2021/03/13 06:05:20;;;;;;;2.77;0.50;;;7.40;99.90;;;;;;5054305;28;20221;-75
2021/03/13 06:07:48;;;;;;;2.67;0.50;;;7.50;99.90;;;;;;5054281;28;20172;-76
2021/03/13 06:10:15;;;;;;;0.40;0.40;;;7.50;99.90;;;;;;5036275;28;20178;-75
2021/03/13 06:12:41;;;;;;;1.67;0.50;;;7.60;99.90;;;;;;5053568;28;20198;-75
2021/03/13 06:15:08;;;;;;;1.40;0.50;;;7.60;99.90;;;;;;5019894;28;20609;-75
2021/03/13 06:17:59;;;;;;;0.90;0.53;;;7.70;99.90;;;;;;5054116;28;20167;-75
2021/03/13 06:20:28;;;;;;;1.87;0.57;;;7.60;99.90;;;;;;5016904;28;20564;-75
2021/03/13 06:22:54;;;;;;;1.50;0.63;;;7.70;99.90;;;;;;5029202;28;20176;-75
2021/03/13 06:25:25;;;;;;;2.90;0.63;;;7.60;99.90;;;;;;5053993;28;20171;-75
2021/03/13 06:28:05;;;;;;;3.67;0.63;;;7.70;99.90;;;;;;5053829;28;20218;-75
2021/03/13 06:30:45;;;;;;;3.90;0.50;;;7.60;99.90;;;;;;5053696;28;20194;-75
2021/03/13 06:33:18;;;;;;;1.97;0.70;;;7.60;99.90;;;;;;5043848;28;20263;-77
2021/03/13 06:35:44;;;;;;;4.17;1.17;;;7.50;99.90;;;;;;5053603;28;20203;-74
2021/03/13 06:38:15;;;;;;;1.70;0.60;;;7.60;99.90;;;;;;5036083;28;20178;-75
2021/03/13 06:40:42;;;;;;;6.63;0.90;;;7.60;99.90;;;;;;5035477;28;20171;-75
2021/03/13 06:43:29;;;;;;;5.73;1.10;;;7.50;99.90;;;;;;5053008;28;20221;-74
2021/03/13 06:46:15;;;;;;;9.40;1.70;;;7.60;99.90;;;;;;5035534;28;20583;-74
2021/03/13 06:48:52;;;;;;;3.27;1.03;;;7.60;99.90;;;;;;5035632;28;20178;-74
2021/03/13 06:51:30;;;;;;;5.57;1.10;;;7.60;99.90;;;;;;5035452;28;20163;-75
2021/03/13 06:54:11;;;;;;;3.73;1.23;;;7.60;99.90;;;;;;5035026;28;20171;-74
2021/03/13 06:56:56;;;;;;;9.10;1.60;;;7.60;99.90;;;;;;5053507;28;20238;-76
2021/03/13 06:59:37;;;;;;;6.63;1.20;;;7.70;99.90;;;;;;5053402;28;20186;-74
2021/03/13 07:02:04;;;;;;;4.70;0.67;;;7.70;99.90;;;;;;5034951;28;20193;-75
2021/03/13 07:04:31;;;;;;;4.47;1.00;;;7.70;99.90;;;;;;5052848;28;20194;-75
2021/03/13 07:06:56;;;;;;;4.57;0.80;;;7.80;99.90;;;;;;5052921;28;20173;-76
2021/03/13 07:09:54;;;;;;;1.27;0.53;;;7.80;99.90;;;;;;5052826;28;20690;-75
2021/03/13 07:12:37;;;;;;;4.77;0.90;;;7.80;99.90;;;;;;5052973;28;20635;-75
2021/03/13 07:15:22;;;;;;;6.33;1.37;;;7.80;99.90;;;;;;5052612;28;20203;-75
2021/03/13 07:17:49;;;;;;;5.87;0.97;;;7.80;99.90;;;;;;5053174;28;20171;-75
2021/03/13 07:20:17;;;;;;;2.57;0.80;;;7.70;99.90;;;;;;5053068;28;20195;-77
2021/03/13 07:22:43;;;;;;;5.27;0.93;;;7.80;99.90;;;;;;5035066;28;20221;-75
2021/03/13 07:25:12;;;;;;;1.93;0.97;;;7.80;99.90;;;;;;5052675;28;20523;-74
2021/03/13 07:27:40;;;;;;;5.73;0.80;;;7.90;99.90;;;;;;5052492;28;20206;-76
2021/03/13 07:30:16;;;;;;;8.17;0.83;;;8.00;99.90;;;;;;5053272;28;20164;-75
2021/03/13 07:32:49;;;;;;;6.97;1.17;;;8.00;99.90;;;;;;5038527;28;20650;-75
2021/03/13 07:35:19;;;;;;;5.70;1.13;;;8.00;99.90;;;;;;5056538;28;20275;-75
2021/03/13 07:37:46;;;;;;;3.30;0.83;;;8.00;99.90;;;;;;5056848;28;20182;-75
2021/03/13 07:40:16;;;;;;;5.80;1.30;;;8.10;99.90;;;;;;5038801;28;20229;-75
2021/03/13 07:42:46;;;;;;;6.67;1.37;;;8.00;99.90;;;;;;5039081;28;20241;-75
2021/03/13 07:45:13;;;;;;;3.83;1.40;;;8.00;99.90;;;;;;5056524;28;20249;-74
2021/03/13 07:47:43;;;;;;;5.10;1.00;;;7.90;99.90;;;;;;5055655;28;20167;-76
2021/03/13 07:50:11;;;;;;;13.57;1.70;;;7.90;99.90;;;;;;5054837;28;20179;-75
2021/03/13 07:52:44;;;;;;;6.77;1.10;;;8.00;99.90;;;;;;5055332;28;20262;-74
2021/03/13 07:55:15;;;;;;;9.37;1.33;;;8.10;99.90;;;;;;5047304;28;20199;-75
2021/03/13 07:57:48;;;;;;;8.87;1.93;;;8.20;99.90;;;;;;5038700;28;20174;-75
2021/03/13 08:00:14;;;;;;;5.90;1.20;;;8.20;99.90;;;;;;5038629;28;20171;-74
2021/03/13 08:02:46;;;;;;;7.20;1.73;;;8.20;99.90;;;;;;5038076;28;20639;-75
2021/03/13 08:05:13;;;;;;;11.60;1.90;;;8.30;99.90;;;;;;5037805;28;20182;-75
2021/03/13 08:08:00;;;;;;;6.78;1.52;;;8.30;99.90;;;;;;5056520;28;20168;-75
2021/03/13 08:10:46;;;;;;;13.53;1.83;;;8.30;99.90;;;;;;5056486;28;20172;-75
2021/03/13 08:13:28;;;;;;;16.93;2.50;;;8.30;99.90;;;;;;5056010;28;20254;-76
2021/03/13 08:16:09;;;;;;;16.67;2.40;;;8.30;99.90;;;;;;5056215;28;20674;-74
2021/03/13 08:18:50;;;;;;;12.37;2.10;;;8.40;99.90;;;;;;5056197;28;20653;-74
2021/03/13 08:21:22;;;;;;;14.17;2.07;;;8.40;99.90;;;;;;5056237;28;20164;-77
2021/03/13 08:23:48;;;;;;;20.27;2.90;;;8.80;99.90;;;;;;5037812;28;20233;-75
2021/03/13 08:26:15;;;;;;;15.67;2.60;;;10.00;99.90;;;;;;5021807;28;20179;-76
2021/03/13 08:29:04;;;;;;;14.95;3.22;;;9.90;99.90;;;;;;5056473;28;20167;-77
2021/03/13 08:31:36;;;;;;;15.07;2.58;;;9.60;99.90;;;;;;5037774;28;20578;-75
2021/03/13 08:34:04;;;;;;;19.70;2.53;;;9.50;99.90;;;;;;5037187;28;20172;-76
2021/03/13 08:36:31;;;;;;;9.35;2.20;;;9.40;99.90;;;;;;5038035;28;20219;-76
2021/03/13 08:39:03;;;;;;;17.98;3.05;;;9.40;99.90;;;;;;5055874;28;20160;-75
2021/03/13 08:41:41;;;;;;;9.40;2.30;;;11.20;99.90;;;;;;5056006;28;20160;-75
2021/03/13 08:44:13;;;;;;;12.52;2.85;;;12.60;99.90;;;;;;5035314;28;20708;-75
2021/03/13 08:46:53;;;;;;;14.90;2.97;;;11.40;99.90;;;;;;5055841;28;20574;-75
2021/03/13 08:49:25;;;;;;;16.85;2.75;;;10.50;99.90;;;;;;5036338;28;20229;-75
2021/03/13 08:52:09;;;;;;;12.43;2.85;;;10.00;99.90;;;;;;5032035;28;20178;-75
2021/03/13 08:54:48;;;;;;;11.32;2.65;;;10.80;99.90;;;;;;5055112;28;20171;-76
2021/03/13 08:57:39;;;;;;;21.83;3.33;;;10.60;99.90;;;;;;5055529;28;20529;-74
2021/03/13 09:00:07;;;;;;;22.65;3.78;;;9.90;99.90;;;;;;5055442;28;20175;-74
2021/03/13 09:02:39;;;;;;;27.20;3.40;;;9.20;99.90;;;;;;5036720;28;20210;-74
2021/03/13 09:05:11;;;;;;;21.73;2.90;;;8.80;99.90;;;;;;5036284;28;20193;-75
2021/03/13 09:07:37;;;;;;;21.63;4.00;;;8.60;99.90;;;;;;5055054;28;20164;-74
2021/03/13 09:10:05;;;;;;;18.33;3.97;;;8.60;99.90;;;;;;5055208;28;20272;-74
2021/03/13 09:12:33;;;;;;;10.33;2.83;;;8.90;99.90;;;;;;5037293;28;20189;-78
2021/03/13 09:15:01;;;;;;;16.07;2.77;;;9.20;99.90;;;;;;5036967;28;20656;-75
2021/03/13 09:17:29;;;;;;;21.20;3.67;;;9.30;99.90;;;;;;5035266;28;20187;-75
2021/03/13 09:19:59;;;;;;;18.42;3.08;;;9.20;99.90;;;;;;5048122;28;20179;-77
2021/03/13 09:22:26;;;;;;;20.63;3.67;;;9.30;99.90;;;;;;5042867;28;20184;-75
2021/03/13 09:24:57;;;;;;;21.65;3.78;;;10.50;99.90;;;;;;5035033;28;20640;-75
2021/03/13 09:27:31;;;;;;;15.50;2.95;;;11.90;99.90;;;;;;5050695;28;20168;-76
2021/03/13 09:29:58;;;;;;;14.70;3.10;;;14.10;99.90;;;;;;5036262;28;20532;-76
2021/03/13 09:32:26;;;;;;;13.32;2.60;;;15.40;99.90;;;;;;5037077;28;20238;-76
2021/03/13 09:34:55;;;;;;;13.65;2.92;;;15.50;99.90;;;;;;5054826;28;20221;-75
2021/03/13 09:37:29;;;;;;;16.33;3.40;;;13.80;99.90;;;;;;5036344;28;20175;-76
2021/03/13 09:40:20;;;;;;;22.08;3.90;;;13.30;99.90;;;;;;5029400;28;20180;-76
2021/03/13 09:42:48;;;;;;;16.30;3.88;;;12.70;99.90;;;;;;5034623;28;20178;-76
2021/03/13 09:45:16;;;;;;;18.95;4.10;;;13.60;99.90;;;;;;5074678;28;20170;-75
2021/03/13 09:47:54;;;;;;;28.15;4.25;;;14.20;99.90;;;;;;5066810;28;20179;-75
2021/03/13 09:50:39;;;;;;;13.73;3.40;;;15.30;99.90;;;;;;5053615;28;20257;-76
2021/03/13 09:53:10;;;;;;;20.77;3.33;;;16.40;99.90;;;;;;5036820;28;20768;-75
2021/03/13 09:55:37;;;;;;;27.25;4.13;;;15.70;99.90;;;;;;5049346;28;20204;-75
2021/03/13 09:58:04;;;;;;;20.92;3.35;;;14.40;99.90;;;;;;5037998;28;20183;-76
2021/03/13 10:00:32;;;;;;;18.67;3.35;;;14.40;99.90;;;;;;5036413;28;20179;-77
2021/03/13 10:03:00;;;;;;;17.73;3.50;;;13.80;99.90;;;;;;5054309;28;20581;-76
2021/03/13 10:05:30;;;;;;;13.98;3.40;;;13.90;99.90;;;;;;5035954;28;20637;-76
2021/03/13 10:07:56;;;;;;;13.52;3.58;;;15.10;99.90;;;;;;5036437;28;20190;-76
2021/03/13 10:10:25;;;;;;;19.63;3.55;;;13.70;99.90;;;;;;5053318;28;20176;-75
2021/03/13 10:12:53;;;;;;;20.58;4.00;;;14.30;99.90;;;;;;5028859;28;20184;-76
2021/03/13 10:15:31;;;;;;;18.58;4.47;;;15.60;99.90;;;;;;5016320;28;20242;-76
2021/03/13 10:18:05;;;;;;;21.48;4.13;;;14.90;99.90;;;;;;5019987;28;20167;-76
2021/03/13 10:20:32;;;;;;;21.20;4.20;;;15.00;99.90;;;;;;5052319;28;20175;-75
2021/03/13 10:23:03;;;;;;;24.23;3.65;;;15.10;99.90;;;;;;5053411;28;20527;-76
2021/03/13 10:25:29;;;;;;;17.40;3.45;;;14.60;99.90;;;;;;5035617;28;20179;-75
2021/03/13 10:28:08;;;;;;;19.77;4.18;;;15.70;99.90;;;;;;5053608;28;20164;-75
2021/03/13 10:30:35;;;;;;;21.50;4.47;;;16.80;99.90;;;;;;5033374;28;20167;-76
2021/03/13 10:33:01;;;;;;;35.28;4.13;;;14.90;99.90;;;;;;5053992;28;20194;-76
2021/03/13 10:35:28;;;;;;;28.27;4.18;;;13.40;99.90;;;;;;5018333;28;20625;-76
2021/03/13 10:37:59;;;;;;;28.65;5.10;;;12.70;99.90;;;;;;5035638;28;20171;-77
2021/03/13 10:40:35;;;;;;;25.45;4.63;;;12.10;99.90;;;;;;5034552;28;20195;-76
2021/03/13 10:43:14;;;;;;;24.30;5.18;;;11.10;99.90;;;;;;5053346;28;20175;-76
2021/03/13 10:45:41;;;;;;;18.80;3.50;;;10.40;99.90;;;;;;5053721;28;20626;-76
2021/03/13 10:48:08;;;;;;;20.20;3.90;;;9.40;99.90;;;;;;5046705;28;20245;-75
2021/03/13 10:50:43;;;;;;;21.20;3.53;;;8.80;99.90;;;;;;5025118;28;20176;-76
2021/03/13 10:53:27;;;;;;;16.77;3.88;;;8.70;99.90;;;;;;5033584;28;20159;-75
2021/03/13 10:55:54;;;;;;;21.98;4.03;;;11.70;99.90;;;;;;5015399;28;20287;-74
2021/03/13 10:58:25;;;;;;;15.55;3.65;;;14.50;99.90;;;;;;5053316;28;20167;-76
2021/03/13 11:00:50;;;;;;;23.77;3.40;;;14.90;99.90;;;;;;5023857;28;20194;-77
2021/03/13 11:03:16;;;;;;;26.63;4.13;;;13.20;99.90;;;;;;5052288;28;20163;-76
2021/03/13 11:05:42;;;;;;;21.70;4.03;;;11.90;99.90;;;;;;5035695;28;20543;-76
2021/03/13 11:08:11;;;;;;;21.60;3.95;;;11.80;99.90;;;;;;5035376;28;20543;-76
2021/03/13 11:10:37;;;;;;;20.15;4.18;;;12.90;99.90;;;;;;5034625;28;20210;-75
2021/03/13 11:13:03;;;;;;;18.23;3.55;;;14.80;99.90;;;;;;5053155;28;20163;-77
2021/03/13 11:15:29;;;;;;;28.65;4.35;;;14.40;99.90;;;;;;5052879;28;20206;-76
2021/03/13 11:17:54;;;;;;;14.55;3.00;;;14.10;99.90;;;;;;5052762;28;20591;-76
2021/03/13 11:20:20;;;;;;;31.67;4.72;;;15.40;99.90;;;;;;5053305;28;20248;-76
2021/03/13 11:22:46;;;;;;;16.83;3.63;;;16.50;99.90;;;;;;5052611;28;20205;-75
2021/03/13 11:25:11;;;;;;;19.63;4.35;;;16.80;99.90;;;;;;5053104;28;20176;-75
2021/03/13 11:27:37;;;;;;;19.75;3.38;;;16.50;99.90;;;;;;5053269;28;20167;-75
2021/03/13 11:30:06;;;;;;;16.38;3.45;;;14.80;99.90;;;;;;5052998;28;20166;-75
2021/03/13 11:32:33;;;;;;;13.55;3.13;;;13.30;99.90;;;;;;5052525;28;20640;-75
2021/03/13 11:34:58;;;;;;;19.80;3.45;;;12.30;99.90;;;;;;5034934;28;20258;-77
2021/03/13 11:37:24;;;;;;;20.58;3.53;;;12.00;99.90;;;;;;5048547;28;20270;-77
2021/03/13 11:39:50;;;;;;;19.45;3.28;;;11.70;99.90;;;;;;5031693;28;20188;-76
2021/03/13 11:42:15;;;;;;;21.45;3.63;;;11.60;99.90;;;;;;5042391;28;20187;-76
2021/03/13 11:44:41;;;;;;;16.67;3.67;;;11.60;99.90;;;;;;5052629;28;20631;-77
2021/03/13 11:47:06;;;;;;;19.55;3.00;;;11.40;99.90;;;;;;5052979;28;20254;-76
2021/03/13 11:49:32;;;;;;;19.35;3.28;;;11.60;99.90;;;;;;5052941;28;20259;-77
2021/03/13 11:51:58;;;;;;;17.38;3.53;;;11.60;99.90;;;;;;5052830;28;20175;-75
2021/03/13 11:54:23;;;;;;;19.35;3.85;;;12.10;99.90;;;;;;5035282;28;20182;-75
2021/03/13 11:56:49;;;;;;;20.15;4.03;;;12.30;99.90;;;;;;5035183;28;20191;-77
2021/03/13 11:59:14;;;;;;;20.45;4.32;;;12.20;99.90;;;;;;5035156;28;20179;-75
2021/03/13 12:01:40;;;;;;;15.60;3.45;;;12.80;99.90;;;;;;5052093;28;20207;-76
2021/03/13 12:04:06;;;;;;;22.73;4.07;;;12.80;99.90;;;;;;5052867;28;20254;-78
2021/03/13 12:06:31;;;;;;;18.30;4.28;;;13.50;99.90;;;;;;5034967;28;20546;-77
2021/03/13 12:08:59;;;;;;;17.48;4.57;;;15.60;99.90;;;;;;5052839;28;20167;-76
2021/03/13 12:11:29;;;;;;;17.25;3.63;;;16.30;99.90;;;;;;5052765;28;20175;-76
2021/03/13 12:13:54;;;;;;;17.13;3.55;;;16.80;99.90;;;;;;5052654;28;20175;-76
2021/03/13 12:16:20;;;;;;;16.58;2.88;;;15.50;99.90;;;;;;5034920;28;20268;-76
2021/03/13 12:18:45;;;;;;;16.02;3.38;;;13.90;99.90;;;;;;5038308;28;20176;-76
2021/03/13 12:21:11;;;;;;;13.90;3.03;;;13.70;99.90;;;;;;5056047;28;20168;-76
2021/03/13 12:23:37;;;;;;;8.13;2.63;;;13.70;99.90;;;;;;5056321;28;20206;-75
2021/03/13 12:26:03;;;;;;;8.65;2.33;;;13.50;99.90;;;;;;5055687;28;20195;-75
2021/03/13 12:28:29;;;;;;;12.60;2.88;;;13.70;99.90;;;;;;5056362;28;20171;-75
2021/03/13 12:30:54;;;;;;;13.48;2.88;;;13.10;99.90;;;;;;5038237;28;20190;-76
2021/03/13 12:33:20;;;;;;;14.80;3.08;;;14.10;99.90;;;;;;5056341;28;20170;-76
2021/03/13 12:35:46;;;;;;;10.73;2.30;;;14.20;99.90;;;;;;5038322;28;20211;-76
2021/03/13 12:38:11;;;;;;;16.08;2.72;;;14.10;99.90;;;;;;5055436;28;20251;-77
2021/03/13 12:40:37;;;;;;;16.77;3.20;;;14.00;99.90;;;;;;5002207;28;20172;-77
2021/03/13 12:43:03;;;;;;;10.32;2.28;;;14.60;99.90;;;;;;5011870;28;20180;-76
2021/03/13 12:45:29;;;;;;;18.55;3.28;;;15.50;99.90;;;;;;5038107;28;20171;-78
2021/03/13 12:47:54;;;;;;;12.27;2.88;;;16.50;99.90;;;;;;5038178;28;20521;-76
2021/03/13 12:50:20;;;;;;;14.73;2.78;;;16.80;99.90;;;;;;5020952;28;20175;-76
2021/03/13 12:52:45;;;;;;;11.35;2.28;;;16.30;99.90;;;;;;5055338;28;20188;-77
2021/03/13 12:55:15;;;;;;;14.75;2.65;;;16.20;99.90;;;;;;5054930;28;20774;-76
2021/03/13 12:57:41;;;;;;;11.80;2.70;;;15.70;99.90;;;;;;5055805;28;20217;-75
2021/03/13 13:00:07;;;;;;;20.38;3.05;;;14.70;99.90;;;;;;5021172;28;20611;-75